sensor_id;sensor_type;location;lat;lon;timestamp;temperature;humidity
31975;DHT22;18500;43.618;1.474;2022-08-01T00:00:34;24.30;99.90
31975;DHT22;18500;43.618;1.474;2022-08-01T00:02:59;24.30;99.90
31975;DHT22;18500;43.618;1.474;2022-08-01T00:05:25;24.20;99.90
31975;DHT22;18500;43.618;1.474;2022-08-01T00:07:51;24.20;99.90
31975;DHT22;18500;43.618;1.474;2022-08-01T00:10:17;24.30;99.90
31975;DHT22;18500;43.618;1.474;2022-08-01T00:12:43;24.40;99.90
31975;DHT22;18500;43.618;1.474;2022-08-01T00:15:12;24.40;99.90
31975;DHT22;18500;43.618;1.474;2022-08-01T00:17:38;24.30;99.90
31975;DHT22;18500;43.618;1.474;2022-08-01T00:20:08;24.20;99.90
31975;DHT22;18500;43.618;1.474;2022-08-01T00:22:35;24.30;99.90
31975;DHT22;18500;43.618;1.474;2022-08-01T00:25:02;24.30;99.90
31975;DHT22;18500;43.618;1.474;2022-08-01T00:27:28;24.20;99.90
31975;DHT22;18500;43.618;1.474;2022-08-01T00:29:54;24.20;99.90
31975;DHT22;18500;43.618;1.474;2022-08-01T00:32:19;24.20;99.90
31975;DHT22;18500;43.618;1.474;2022-08-01T00:34:45;24.10;99.90
31975;DHT22;18500;43.618;1.474;2022-08-01T00:37:11;24.20;99.90
31975;DHT22;18500;43.618;1.474;2022-08-01T00:39:37;24.20;99.90
31975;DHT22;18500;43.618;1.474;2022-08-01T00:42:12;24.20;99.90
31975;DHT22;18500;43.618;1.474;2022-08-01T00:44:38;24.20;99.90
31975;DHT22;18500;43.618;1.474;2022-08-01T00:47:04;24.10;99.90
31975;DHT22;18500;43.618;1.474;2022-08-01T00:49:30;24.00;99.90
31975;DHT22;18500;43.618;1.474;2022-08-01T00:51:56;24.00;99.90
31975;DHT22;18500;43.618;1.474;2022-08-01T00:54:24;24.00;99.90
31975;DHT22;18500;43.618;1.474;2022-08-01T00:56:51;24.00;99.90
31975;DHT22;18500;43.618;1.474;2022-08-01T00:59:17;24.00;99.90
31975;DHT22;18500;43.618;1.474;2022-08-01T01:01:44;23.90;99.90
31975;DHT22;18500;43.618;1.474;2022-08-01T01:04:10;23.80;1.00
31975;DHT22;18500;43.618;1.474;2022-08-01T01:09:56;23.80;99.90
31975;DHT22;18500;43.618;1.474;2022-08-01T01:12:48;23.70;99.90
31975;DHT22;18500;43.618;1.474;2022-08-01T01:17:49;23.50;1.00
31975;DHT22;18500;43.618;1.474;2022-08-01T01:20:18;23.50;1.00
31975;DHT22;18500;43.618;1.474;2022-08-01T01:23:10;23.40;1.00
31975;DHT22;18500;43.618;1.474;2022-08-01T01:25:42;23.40;1.00
31975;DHT22;18500;43.618;1.474;2022-08-01T01:28:30;23.40;1.00
31975;DHT22;18500;43.618;1.474;2022-08-01T01:31:00;23.30;1.00
31975;DHT22;18500;43.618;1.474;2022-08-01T01:33:27;23.30;1.00
31975;DHT22;18500;43.618;1.474;2022-08-01T01:36:00;23.20;1.00
31975;DHT22;18500;43.618;1.474;2022-08-01T01:38:32;23.20;1.00
31975;DHT22;18500;43.618;1.474;2022-08-01T01:40:59;23.10;1.00
31975;DHT22;18500;43.618;1.474;2022-08-01T01:43:26;23.20;1.00
31975;DHT22;18500;43.618;1.474;2022-08-01T01:45:53;23.00;1.00
31975;DHT22;18500;43.618;1.474;2022-08-01T01:48:20;23.00;1.00
31975;DHT22;18500;43.618;1.474;2022-08-01T01:50:47;23.00;1.00
31975;DHT22;18500;43.618;1.474;2022-08-01T01:53:17;23.00;1.00
31975;DHT22;18500;43.618;1.474;2022-08-01T01:55:46;23.00;1.00
31975;DHT22;18500;43.618;1.474;2022-08-01T01:58:14;22.90;1.00
31975;DHT22;18500;43.618;1.474;2022-08-01T02:00:42;22.90;1.00
31975;DHT22;18500;43.618;1.474;2022-08-01T02:03:11;22.90;1.00
31975;DHT22;18500;43.618;1.474;2022-08-01T02:05:37;22.90;1.00
31975;DHT22;18500;43.618;1.474;2022-08-01T02:08:04;22.80;1.00
31975;DHT22;18500;43.618;1.474;2022-08-01T02:10:32;22.80;1.00
31975;DHT22;18500;43.618;1.474;2022-08-01T02:12:59;22.70;1.00
31975;DHT22;18500;43.618;1.474;2022-08-01T02:15:27;22.70;1.00
31975;DHT22;18500;43.618;1.474;2022-08-01T02:17:56;22.70;1.00
31975;DHT22;18500;43.618;1.474;2022-08-01T02:20:22;22.60;1.00
31975;DHT22;18500;43.618;1.474;2022-08-01T02:22:53;22.50;1.00
31975;DHT22;18500;43.618;1.474;2022-08-01T02:25:36;22.50;1.00
31975;DHT22;18500;43.618;1.474;2022-08-01T02:28:09;22.50;1.00
31975;DHT22;18500;43.618;1.474;2022-08-01T02:30:38;22.50;1.00
31975;DHT22;18500;43.618;1.474;2022-08-01T02:35:41;22.40;1.00
31975;DHT22;18500;43.618;1.474;2022-08-01T02:38:10;22.40;1.00
31975;DHT22;18500;43.618;1.474;2022-08-01T02:40:39;22.30;1.00
31975;DHT22;18500;43.618;1.474;2022-08-01T02:43:06;22.30;1.00
31975;DHT22;18500;43.618;1.474;2022-08-01T02:45:35;22.30;1.00
31975;DHT22;18500;43.618;1.474;2022-08-01T02:48:09;22.20;1.00
31975;DHT22;18500;43.618;1.474;2022-08-01T02:50:36;22.10;1.00
31975;DHT22;18500;43.618;1.474;2022-08-01T02:53:04;22.10;1.00
31975;DHT22;18500;43.618;1.474;2022-08-01T02:55:32;22.10;1.00
31975;DHT22;18500;43.618;1.474;2022-08-01T02:58:00;22.00;1.00
31975;DHT22;18500;43.618;1.474;2022-08-01T03:00:28;22.00;1.00
31975;DHT22;18500;43.618;1.474;2022-08-01T03:02:55;22.00;1.00
31975;DHT22;18500;43.618;1.474;2022-08-01T03:05:24;22.00;1.00
31975;DHT22;18500;43.618;1.474;2022-08-01T03:07:52;21.90;1.00
31975;DHT22;18500;43.618;1.474;2022-08-01T03:10:19;21.90;1.00
31975;DHT22;18500;43.618;1.474;2022-08-01T03:12:46;21.80;1.00
31975;DHT22;18500;43.618;1.474;2022-08-01T03:15:14;21.80;1.00
31975;DHT22;18500;43.618;1.474;2022-08-01T03:17:42;21.80;1.00
31975;DHT22;18500;43.618;1.474;2022-08-01T03:20:10;21.70;1.00
31975;DHT22;18500;43.618;1.474;2022-08-01T03:22:39;21.80;1.00
31975;DHT22;18500;43.618;1.474;2022-08-01T03:25:06;21.70;1.00
31975;DHT22;18500;43.618;1.474;2022-08-01T03:27:35;21.70;1.00
31975;DHT22;18500;43.618;1.474;2022-08-01T03:30:03;21.60;1.00
31975;DHT22;18500;43.618;1.474;2022-08-01T03:32:30;21.60;1.00
31975;DHT22;18500;43.618;1.474;2022-08-01T03:34:56;21.60;1.00
31975;DHT22;18500;43.618;1.474;2022-08-01T03:40:10;21.40;1.00
31975;DHT22;18500;43.618;1.474;2022-08-01T03:42:48;21.40;1.00
31975;DHT22;18500;43.618;1.474;2022-08-01T03:45:20;21.30;1.00
31975;DHT22;18500;43.618;1.474;2022-08-01T03:47:47;21.30;1.00
31975;DHT22;18500;43.618;1.474;2022-08-01T03:50:15;21.30;1.00
31975;DHT22;18500;43.618;1.474;2022-08-01T03:52:43;21.20;1.00
31975;DHT22;18500;43.618;1.474;2022-08-01T03:55:11;21.20;1.00
31975;DHT22;18500;43.618;1.474;2022-08-01T03:57:38;21.20;1.00
31975;DHT22;18500;43.618;1.474;2022-08-01T04:00:06;21.20;1.00
31975;DHT22;18500;43.618;1.474;2022-08-01T04:02:33;21.10;1.00
31975;DHT22;18500;43.618;1.474;2022-08-01T04:05:00;21.10;1.00
31975;DHT22;18500;43.618;1.474;2022-08-01T04:07:31;21.10;1.00
31975;DHT22;18500;43.618;1.474;2022-08-01T04:09:57;21.00;1.00
31975;DHT22;18500;43.618;1.474;2022-08-01T04:12:23;21.00;1.00
31975;DHT22;18500;43.618;1.474;2022-08-01T04:14:49;20.90;1.00
31975;DHT22;18500;43.618;1.474;2022-08-01T04:17:18;20.90;1.00
31975;DHT22;18500;43.618;1.474;2022-08-01T04:19:44;20.90;1.00
31975;DHT22;18500;43.618;1.474;2022-08-01T04:22:12;20.80;1.00
31975;DHT22;18500;43.618;1.474;2022-08-01T04:24:39;20.80;1.00
31975;DHT22;18500;43.618;1.474;2022-08-01T04:27:13;20.80;1.00
31975;DHT22;18500;43.618;1.474;2022-08-01T04:29:39;20.70;1.00
31975;DHT22;18500;43.618;1.474;2022-08-01T04:32:09;20.70;1.00
31975;DHT22;18500;43.618;1.474;2022-08-01T04:34:38;20.60;1.00
31975;DHT22;18500;43.618;1.474;2022-08-01T04:37:07;20.60;1.00
31975;DHT22;18500;43.618;1.474;2022-08-01T04:39:34;20.60;1.00
31975;DHT22;18500;43.618;1.474;2022-08-01T04:42:04;20.50;1.00
31975;DHT22;18500;43.618;1.474;2022-08-01T04:44:31;20.50;1.00
31975;DHT22;18500;43.618;1.474;2022-08-01T04:47:02;20.40;1.00
31975;DHT22;18500;43.618;1.474;2022-08-01T04:49:31;20.40;1.00
31975;DHT22;18500;43.618;1.474;2022-08-01T04:51:57;20.40;1.00
31975;DHT22;18500;43.618;1.474;2022-08-01T04:54:27;20.40;1.00
31975;DHT22;18500;43.618;1.474;2022-08-01T04:56:54;20.50;1.00
31975;DHT22;18500;43.618;1.474;2022-08-01T04:59:24;20.40;1.00
31975;DHT22;18500;43.618;1.474;2022-08-01T05:02:16;20.40;1.00
31975;DHT22;18500;43.618;1.474;2022-08-01T05:04:43;20.40;1.00
31975;DHT22;18500;43.618;1.474;2022-08-01T05:07:10;20.30;1.00
31975;DHT22;18500;43.618;1.474;2022-08-01T05:09:36;20.20;1.00
31975;DHT22;18500;43.618;1.474;2022-08-01T05:12:04;20.20;1.00
31975;DHT22;18500;43.618;1.474;2022-08-01T05:14:31;20.30;1.00
31975;DHT22;18500;43.618;1.474;2022-08-01T05:17:02;20.30;1.00
31975;DHT22;18500;43.618;1.474;2022-08-01T05:19:33;20.30;1.00
31975;DHT22;18500;43.618;1.474;2022-08-01T05:21:59;20.20;1.00
31975;DHT22;18500;43.618;1.474;2022-08-01T05:24:27;20.10;1.00
31975;DHT22;18500;43.618;1.474;2022-08-01T05:26:56;20.20;1.00
31975;DHT22;18500;43.618;1.474;2022-08-01T05:29:23;20.30;1.00
31975;DHT22;18500;43.618;1.474;2022-08-01T05:31:49;20.30;1.00
31975;DHT22;18500;43.618;1.474;2022-08-01T05:34:15;20.20;1.00
31975;DHT22;18500;43.618;1.474;2022-08-01T05:36:41;20.20;1.00
31975;DHT22;18500;43.618;1.474;2022-08-01T05:39:07;20.20;1.00
31975;DHT22;18500;43.618;1.474;2022-08-01T05:41:32;20.10;1.00
31975;DHT22;18500;43.618;1.474;2022-08-01T05:43:59;20.20;1.00
31975;DHT22;18500;43.618;1.474;2022-08-01T05:46:25;20.20;1.00
31975;DHT22;18500;43.618;1.474;2022-08-01T05:48:50;20.20;1.00
31975;DHT22;18500;43.618;1.474;2022-08-01T05:51:16;20.30;1.00
31975;DHT22;18500;43.618;1.474;2022-08-01T05:53:41;20.20;1.00
31975;DHT22;18500;43.618;1.474;2022-08-01T05:56:07;20.40;1.00
31975;DHT22;18500;43.618;1.474;2022-08-01T05:58:33;20.40;1.00
31975;DHT22;18500;43.618;1.474;2022-08-01T06:00:59;20.40;1.00
31975;DHT22;18500;43.618;1.474;2022-08-01T06:03:24;20.50;1.00
31975;DHT22;18500;43.618;1.474;2022-08-01T06:05:53;20.40;1.00
31975;DHT22;18500;43.618;1.474;2022-08-01T06:08:18;20.50;1.00
31975;DHT22;18500;43.618;1.474;2022-08-01T06:10:44;20.50;1.00
31975;DHT22;18500;43.618;1.474;2022-08-01T06:13:10;20.60;1.00
31975;DHT22;18500;43.618;1.474;2022-08-01T06:15:35;20.60;1.00
31975;DHT22;18500;43.618;1.474;2022-08-01T06:18:01;20.60;1.00
31975;DHT22;18500;43.618;1.474;2022-08-01T06:20:27;20.60;1.00
31975;DHT22;18500;43.618;1.474;2022-08-01T06:22:52;20.60;1.00
31975;DHT22;18500;43.618;1.474;2022-08-01T06:25:18;20.70;1.00
31975;DHT22;18500;43.618;1.474;2022-08-01T06:27:44;20.80;1.00
31975;DHT22;18500;43.618;1.474;2022-08-01T06:30:10;20.80;1.00
31975;DHT22;18500;43.618;1.474;2022-08-01T06:32:36;20.90;1.00
31975;DHT22;18500;43.618;1.474;2022-08-01T06:35:02;20.90;1.00
31975;DHT22;18500;43.618;1.474;2022-08-01T06:37:32;21.10;1.00
31975;DHT22;18500;43.618;1.474;2022-08-01T06:40:06;21.00;1.00
31975;DHT22;18500;43.618;1.474;2022-08-01T06:42:32;21.10;1.00
31975;DHT22;18500;43.618;1.474;2022-08-01T06:45:04;21.00;1.00
31975;DHT22;18500;43.618;1.474;2022-08-01T06:47:30;21.10;1.00
31975;DHT22;18500;43.618;1.474;2022-08-01T06:49:56;21.20;1.00
31975;DHT22;18500;43.618;1.474;2022-08-01T06:52:22;21.20;1.00
31975;DHT22;18500;43.618;1.474;2022-08-01T06:54:47;21.30;1.00
31975;DHT22;18500;43.618;1.474;2022-08-01T06:57:13;21.40;1.00
31975;DHT22;18500;43.618;1.474;2022-08-01T06:59:39;21.50;1.00
31975;DHT22;18500;43.618;1.474;2022-08-01T07:02:04;21.50;1.00
31975;DHT22;18500;43.618;1.474;2022-08-01T07:04:31;21.50;1.00
31975;DHT22;18500;43.618;1.474;2022-08-01T07:06:57;21.60;1.00
31975;DHT22;18500;43.618;1.474;2022-08-01T07:09:23;21.60;1.00
31975;DHT22;18500;43.618;1.474;2022-08-01T07:11:49;21.60;1.00
31975;DHT22;18500;43.618;1.474;2022-08-01T07:14:16;21.70;1.00
31975;DHT22;18500;43.618;1.474;2022-08-01T07:16:41;21.80;1.00
31975;DHT22;18500;43.618;1.474;2022-08-01T07:19:07;21.70;1.00
31975;DHT22;18500;43.618;1.474;2022-08-01T07:21:33;21.90;1.00
31975;DHT22;18500;43.618;1.474;2022-08-01T07:23:59;21.90;1.00
31975;DHT22;18500;43.618;1.474;2022-08-01T07:26:25;22.00;1.00
31975;DHT22;18500;43.618;1.474;2022-08-01T07:28:51;22.10;1.00
31975;DHT22;18500;43.618;1.474;2022-08-01T07:31:18;22.20;1.00
31975;DHT22;18500;43.618;1.474;2022-08-01T07:33:44;22.30;1.00
31975;DHT22;18500;43.618;1.474;2022-08-01T07:36:09;22.40;1.00
31975;DHT22;18500;43.618;1.474;2022-08-01T07:38:35;22.40;1.00
31975;DHT22;18500;43.618;1.474;2022-08-01T07:41:01;22.50;1.00
31975;DHT22;18500;43.618;1.474;2022-08-01T07:43:28;22.60;1.00
31975;DHT22;18500;43.618;1.474;2022-08-01T07:45:53;22.50;1.00
31975;DHT22;18500;43.618;1.474;2022-08-01T07:48:19;22.50;1.00
31975;DHT22;18500;43.618;1.474;2022-08-01T07:50:49;22.60;1.00
31975;DHT22;18500;43.618;1.474;2022-08-01T07:53:15;22.80;1.00
31975;DHT22;18500;43.618;1.474;2022-08-01T07:55:41;22.90;1.00
31975;DHT22;18500;43.618;1.474;2022-08-01T07:58:07;23.00;1.00
31975;DHT22;18500;43.618;1.474;2022-08-01T08:00:33;23.00;1.00
31975;DHT22;18500;43.618;1.474;2022-08-01T08:02:58;22.90;1.00
31975;DHT22;18500;43.618;1.474;2022-08-01T08:05:27;23.00;1.00
31975;DHT22;18500;43.618;1.474;2022-08-01T08:07:53;23.20;1.00
31975;DHT22;18500;43.618;1.474;2022-08-01T08:10:19;23.30;1.00
31975;DHT22;18500;43.618;1.474;2022-08-01T08:12:45;23.30;1.00
31975;DHT22;18500;43.618;1.474;2022-08-01T08:15:12;23.30;1.00
31975;DHT22;18500;43.618;1.474;2022-08-01T08:17:38;23.30;1.00
31975;DHT22;18500;43.618;1.474;2022-08-01T08:20:07;23.20;1.00
31975;DHT22;18500;43.618;1.474;2022-08-01T08:22:34;23.20;1.00
31975;DHT22;18500;43.618;1.474;2022-08-01T08:25:00;23.30;1.00
31975;DHT22;18500;43.618;1.474;2022-08-01T08:27:25;23.30;1.00
31975;DHT22;18500;43.618;1.474;2022-08-01T08:29:51;23.50;1.00
31975;DHT22;18500;43.618;1.474;2022-08-01T08:32:17;23.70;1.00
31975;DHT22;18500;43.618;1.474;2022-08-01T08:34:43;23.90;1.00
31975;DHT22;18500;43.618;1.474;2022-08-01T08:37:09;24.20;1.00
31975;DHT22;18500;43.618;1.474;2022-08-01T08:39:35;24.10;1.00
31975;DHT22;18500;43.618;1.474;2022-08-01T08:42:04;23.80;1.00
31975;DHT22;18500;43.618;1.474;2022-08-01T08:44:31;23.80;1.00
31975;DHT22;18500;43.618;1.474;2022-08-01T08:46:58;24.00;1.00
31975;DHT22;18500;43.618;1.474;2022-08-01T08:49:28;24.30;1.00
31975;DHT22;18500;43.618;1.474;2022-08-01T08:51:59;24.40;1.00
31975;DHT22;18500;43.618;1.474;2022-08-01T08:54:26;24.30;1.00
31975;DHT22;18500;43.618;1.474;2022-08-01T08:56:53;24.40;1.00
31975;DHT22;18500;43.618;1.474;2022-08-01T08:59:19;24.40;1.00
31975;DHT22;18500;43.618;1.474;2022-08-01T09:01:46;24.20;1.00
31975;DHT22;18500;43.618;1.474;2022-08-01T09:04:12;24.40;1.00
31975;DHT22;18500;43.618;1.474;2022-08-01T09:06:38;24.60;1.00
31975;DHT22;18500;43.618;1.474;2022-08-01T09:09:05;24.60;1.00
31975;DHT22;18500;43.618;1.474;2022-08-01T09:11:31;24.80;1.00
31975;DHT22;18500;43.618;1.474;2022-08-01T09:16:29;25.00;1.00
31975;DHT22;18500;43.618;1.474;2022-08-01T09:19:10;25.10;1.00
31975;DHT22;18500;43.618;1.474;2022-08-01T09:21:37;25.20;1.00
31975;DHT22;18500;43.618;1.474;2022-08-01T09:24:03;25.20;1.00
31975;DHT22;18500;43.618;1.474;2022-08-01T09:28:58;25.40;1.00
31975;DHT22;18500;43.618;1.474;2022-08-01T09:31:26;25.50;1.00
31975;DHT22;18500;43.618;1.474;2022-08-01T09:33:54;25.60;1.00
31975;DHT22;18500;43.618;1.474;2022-08-01T09:36:25;25.70;1.00
31975;DHT22;18500;43.618;1.474;2022-08-01T09:38:52;25.80;1.00
31975;DHT22;18500;43.618;1.474;2022-08-01T09:41:29;25.90;1.00
31975;DHT22;18500;43.618;1.474;2022-08-01T09:43:56;25.80;1.00
31975;DHT22;18500;43.618;1.474;2022-08-01T09:46:22;26.20;1.00
31975;DHT22;18500;43.618;1.474;2022-08-01T09:48:59;26.20;1.00
31975;DHT22;18500;43.618;1.474;2022-08-01T09:51:36;26.20;1.00
31975;DHT22;18500;43.618;1.474;2022-08-01T09:54:03;25.90;1.00
31975;DHT22;18500;43.618;1.474;2022-08-01T09:56:40;26.30;1.00
31975;DHT22;18500;43.618;1.474;2022-08-01T09:59:07;26.50;1.00
31975;DHT22;18500;43.618;1.474;2022-08-01T10:01:50;26.40;1.00
31975;DHT22;18500;43.618;1.474;2022-08-01T10:04:18;26.40;1.00
31975;DHT22;18500;43.618;1.474;2022-08-01T10:06:46;26.90;1.00
31975;DHT22;18500;43.618;1.474;2022-08-01T10:09:15;26.80;1.00
31975;DHT22;18500;43.618;1.474;2022-08-01T10:11:51;27.00;1.00
31975;DHT22;18500;43.618;1.474;2022-08-01T10:14:17;27.20;1.00
31975;DHT22;18500;43.618;1.474;2022-08-01T10:16:45;27.40;1.00
31975;DHT22;18500;43.618;1.474;2022-08-01T10:19:13;27.40;1.00
31975;DHT22;18500;43.618;1.474;2022-08-01T10:21:40;27.20;1.00
31975;DHT22;18500;43.618;1.474;2022-08-01T10:24:06;27.10;1.00
31975;DHT22;18500;43.618;1.474;2022-08-01T10:26:33;27.20;1.00
31975;DHT22;18500;43.618;1.474;2022-08-01T10:29:00;27.50;1.00
31975;DHT22;18500;43.618;1.474;2022-08-01T10:31:27;27.70;1.00
31975;DHT22;18500;43.618;1.474;2022-08-01T10:33:57;27.70;1.00
31975;DHT22;18500;43.618;1.474;2022-08-01T10:36:24;27.90;1.00
31975;DHT22;18500;43.618;1.474;2022-08-01T10:38:51;27.90;1.00
31975;DHT22;18500;43.618;1.474;2022-08-01T10:41:18;28.20;1.00
31975;DHT22;18500;43.618;1.474;2022-08-01T10:43:44;28.40;1.00
31975;DHT22;18500;43.618;1.474;2022-08-01T10:46:10;28.40;1.00
31975;DHT22;18500;43.618;1.474;2022-08-01T10:48:55;28.00;1.00
31975;DHT22;18500;43.618;1.474;2022-08-01T10:51:23;27.90;1.00
31975;DHT22;18500;43.618;1.474;2022-08-01T10:53:53;28.10;1.00
31975;DHT22;18500;43.618;1.474;2022-08-01T10:56:20;28.20;1.00
31975;DHT22;18500;43.618;1.474;2022-08-01T10:58:47;28.50;1.00
31975;DHT22;18500;43.618;1.474;2022-08-01T11:06:41;28.50;1.00
31975;DHT22;18500;43.618;1.474;2022-08-01T11:11:57;28.60;99.90
31975;DHT22;18500;43.618;1.474;2022-08-01T11:14:23;29.10;99.90
31975;DHT22;18500;43.618;1.474;2022-08-01T11:16:49;29.30;99.90
31975;DHT22;18500;43.618;1.474;2022-08-01T11:19:14;29.50;99.90
31975;DHT22;18500;43.618;1.474;2022-08-01T11:24:54;29.20;99.90
31975;DHT22;18500;43.618;1.474;2022-08-01T11:27:28;29.30;99.90
31975;DHT22;18500;43.618;1.474;2022-08-01T11:32:53;29.40;99.90
31975;DHT22;18500;43.618;1.474;2022-08-01T11:35:20;29.70;99.90
31975;DHT22;18500;43.618;1.474;2022-08-01T11:37:49;29.70;99.90
31975;DHT22;18500;43.618;1.474;2022-08-01T11:40:24;29.90;99.90
31975;DHT22;18500;43.618;1.474;2022-08-01T11:45:51;30.10;99.90
31975;DHT22;18500;43.618;1.474;2022-08-01T11:48:27;30.00;99.90
31975;DHT22;18500;43.618;1.474;2022-08-01T11:50:57;30.10;99.90
31975;DHT22;18500;43.618;1.474;2022-08-01T11:53:23;29.90;99.90
31975;DHT22;18500;43.618;1.474;2022-08-01T11:55:50;30.30;99.90
31975;DHT22;18500;43.618;1.474;2022-08-01T11:58:25;30.10;99.90
31975;DHT22;18500;43.618;1.474;2022-08-01T12:00:56;30.30;99.90
31975;DHT22;18500;43.618;1.474;2022-08-01T12:03:27;30.10;99.90
31975;DHT22;18500;43.618;1.474;2022-08-01T12:05:56;30.50;99.90
31975;DHT22;18500;43.618;1.474;2022-08-01T12:08:30;30.90;99.90
31975;DHT22;18500;43.618;1.474;2022-08-01T12:10:59;30.80;99.90
31975;DHT22;18500;43.618;1.474;2022-08-01T12:13:25;30.70;99.90
31975;DHT22;18500;43.618;1.474;2022-08-01T12:15:52;30.90;99.90
31975;DHT22;18500;43.618;1.474;2022-08-01T12:18:19;31.10;99.90
31975;DHT22;18500;43.618;1.474;2022-08-01T12:20:46;31.40;99.90
31975;DHT22;18500;43.618;1.474;2022-08-01T12:23:13;31.30;99.90
31975;DHT22;18500;43.618;1.474;2022-08-01T12:25:39;31.30;99.90
31975;DHT22;18500;43.618;1.474;2022-08-01T12:28:07;31.20;99.90
31975;DHT22;18500;43.618;1.474;2022-08-01T12:30:34;31.60;99.90
31975;DHT22;18500;43.618;1.474;2022-08-01T12:33:01;32.00;99.90
31975;DHT22;18500;43.618;1.474;2022-08-01T12:35:28;31.90;99.90
31975;DHT22;18500;43.618;1.474;2022-08-01T12:38:07;31.70;99.90
31975;DHT22;18500;43.618;1.474;2022-08-01T12:40:41;32.10;99.90
31975;DHT22;18500;43.618;1.474;2022-08-01T12:43:08;37.10;99.90
31975;DHT22;18500;43.618;1.474;2022-08-01T12:45:39;40.30;99.90
31975;DHT22;18500;43.618;1.474;2022-08-01T12:48:14;41.30;99.90
31975;DHT22;18500;43.618;1.474;2022-08-01T12:50:42;43.40;99.90
31975;DHT22;18500;43.618;1.474;2022-08-01T12:53:09;43.50;99.90
31975;DHT22;18500;43.618;1.474;2022-08-01T12:55:53;44.10;99.90
31975;DHT22;18500;43.618;1.474;2022-08-01T12:58:19;44.80;99.90
31975;DHT22;18500;43.618;1.474;2022-08-01T13:00:47;43.90;99.90
31975;DHT22;18500;43.618;1.474;2022-08-01T13:03:18;44.70;99.90
31975;DHT22;18500;43.618;1.474;2022-08-01T13:05:52;45.10;99.90
31975;DHT22;18500;43.618;1.474;2022-08-01T13:10:50;45.40;99.90
31975;DHT22;18500;43.618;1.474;2022-08-01T13:13:17;45.10;99.90
31975;DHT22;18500;43.618;1.474;2022-08-01T13:15:44;45.40;99.90
31975;DHT22;18500;43.618;1.474;2022-08-01T13:21:17;43.60;99.90
31975;DHT22;18500;43.618;1.474;2022-08-01T13:29:10;44.60;99.90
31975;DHT22;18500;43.618;1.474;2022-08-01T13:31:36;45.70;99.90
31975;DHT22;18500;43.618;1.474;2022-08-01T13:34:03;43.60;99.90
31975;DHT22;18500;43.618;1.474;2022-08-01T13:36:28;45.10;99.90
31975;DHT22;18500;43.618;1.474;2022-08-01T13:38:57;46.20;99.90
31975;DHT22;18500;43.618;1.474;2022-08-01T13:41:41;45.30;99.90
31975;DHT22;18500;43.618;1.474;2022-08-01T13:44:08;44.10;99.90
31975;DHT22;18500;43.618;1.474;2022-08-01T13:46:35;43.80;99.90
31975;DHT22;18500;43.618;1.474;2022-08-01T13:49:01;43.30;99.90
31975;DHT22;18500;43.618;1.474;2022-08-01T13:51:28;44.40;99.90
31975;DHT22;18500;43.618;1.474;2022-08-01T13:53:53;45.60;99.90
31975;DHT22;18500;43.618;1.474;2022-08-01T13:56:19;47.20;99.90
31975;DHT22;18500;43.618;1.474;2022-08-01T13:58:45;48.80;99.90
31975;DHT22;18500;43.618;1.474;2022-08-01T14:01:12;45.60;99.90
31975;DHT22;18500;43.618;1.474;2022-08-01T14:03:37;47.90;99.90
31975;DHT22;18500;43.618;1.474;2022-08-01T14:06:03;48.40;99.90
31975;DHT22;18500;43.618;1.474;2022-08-01T14:08:30;48.30;99.90
31975;DHT22;18500;43.618;1.474;2022-08-01T14:10:55;48.00;99.90
31975;DHT22;18500;43.618;1.474;2022-08-01T14:13:24;48.60;99.90
31975;DHT22;18500;43.618;1.474;2022-08-01T14:15:51;48.80;99.90
31975;DHT22;18500;43.618;1.474;2022-08-01T14:18:17;46.50;99.90
31975;DHT22;18500;43.618;1.474;2022-08-01T14:20:43;47.70;99.90
31975;DHT22;18500;43.618;1.474;2022-08-01T14:23:09;44.00;99.90
31975;DHT22;18500;43.618;1.474;2022-08-01T14:25:36;45.60;99.90
31975;DHT22;18500;43.618;1.474;2022-08-01T14:28:02;46.10;99.90
31975;DHT22;18500;43.618;1.474;2022-08-01T14:30:28;47.60;99.90
31975;DHT22;18500;43.618;1.474;2022-08-01T14:32:54;46.60;99.90
31975;DHT22;18500;43.618;1.474;2022-08-01T14:35:20;47.80;99.90
31975;DHT22;18500;43.618;1.474;2022-08-01T14:37:45;48.00;99.90
31975;DHT22;18500;43.618;1.474;2022-08-01T14:40:11;47.80;99.90
31975;DHT22;18500;43.618;1.474;2022-08-01T14:42:38;46.80;99.90
31975;DHT22;18500;43.618;1.474;2022-08-01T14:45:05;44.30;99.90
31975;DHT22;18500;43.618;1.474;2022-08-01T14:47:35;41.60;99.90
31975;DHT22;18500;43.618;1.474;2022-08-01T14:50:02;39.70;99.90
31975;DHT22;18500;43.618;1.474;2022-08-01T14:52:28;37.10;99.90
31975;DHT22;18500;43.618;1.474;2022-08-01T14:54:54;37.90;99.90
31975;DHT22;18500;43.618;1.474;2022-08-01T14:57:19;37.20;99.90
31975;DHT22;18500;43.618;1.474;2022-08-01T14:59:45;36.30;99.90
31975;DHT22;18500;43.618;1.474;2022-08-01T15:02:11;36.00;99.90
31975;DHT22;18500;43.618;1.474;2022-08-01T15:04:42;35.40;99.90
31975;DHT22;18500;43.618;1.474;2022-08-01T15:07:08;35.80;99.90
31975;DHT22;18500;43.618;1.474;2022-08-01T15:09:34;36.00;99.90
31975;DHT22;18500;43.618;1.474;2022-08-01T15:11:59;35.60;99.90
31975;DHT22;18500;43.618;1.474;2022-08-01T15:14:25;35.20;99.90
31975;DHT22;18500;43.618;1.474;2022-08-01T15:17:09;35.40;99.90
31975;DHT22;18500;43.618;1.474;2022-08-01T15:19:35;35.30;99.90
31975;DHT22;18500;43.618;1.474;2022-08-01T15:22:01;35.00;99.90
31975;DHT22;18500;43.618;1.474;2022-08-01T15:24:26;35.00;99.90
31975;DHT22;18500;43.618;1.474;2022-08-01T15:26:52;35.00;99.90
31975;DHT22;18500;43.618;1.474;2022-08-01T15:29:17;35.10;99.90
31975;DHT22;18500;43.618;1.474;2022-08-01T15:31:43;34.50;99.90
31975;DHT22;18500;43.618;1.474;2022-08-01T15:34:10;34.70;99.90
31975;DHT22;18500;43.618;1.474;2022-08-01T15:36:36;34.50;99.90
31975;DHT22;18500;43.618;1.474;2022-08-01T15:39:02;34.70;99.90
31975;DHT22;18500;43.618;1.474;2022-08-01T15:41:27;34.70;99.90
31975;DHT22;18500;43.618;1.474;2022-08-01T15:43:53;34.70;99.90
31975;DHT22;18500;43.618;1.474;2022-08-01T15:46:19;34.80;99.90
31975;DHT22;18500;43.618;1.474;2022-08-01T15:48:44;34.80;99.90
31975;DHT22;18500;43.618;1.474;2022-08-01T15:51:11;34.70;99.90
31975;DHT22;18500;43.618;1.474;2022-08-01T15:53:36;34.80;99.90
31975;DHT22;18500;43.618;1.474;2022-08-01T15:56:02;34.50;99.90
31975;DHT22;18500;43.618;1.474;2022-08-01T15:58:28;34.50;99.90
31975;DHT22;18500;43.618;1.474;2022-08-01T16:00:54;34.20;99.90
31975;DHT22;18500;43.618;1.474;2022-08-01T16:03:20;34.30;99.90
31975;DHT22;18500;43.618;1.474;2022-08-01T16:05:46;33.60;99.90
31975;DHT22;18500;43.618;1.474;2022-08-01T16:08:16;33.60;99.90
31975;DHT22;18500;43.618;1.474;2022-08-01T16:10:42;33.90;99.90
31975;DHT22;18500;43.618;1.474;2022-08-01T16:13:08;33.90;99.90
31975;DHT22;18500;43.618;1.474;2022-08-01T16:15:35;34.10;99.90
31975;DHT22;18500;43.618;1.474;2022-08-01T16:18:01;33.70;99.90
31975;DHT22;18500;43.618;1.474;2022-08-01T16:20:27;33.40;99.90
31975;DHT22;18500;43.618;1.474;2022-08-01T16:22:52;33.40;99.90
31975;DHT22;18500;43.618;1.474;2022-08-01T16:25:18;33.40;99.90
31975;DHT22;18500;43.618;1.474;2022-08-01T16:27:44;33.50;99.90